createdAt,value
2024-03-30T00:00:16.978Z,17
2024-03-30T00:02:17.075Z,15
2024-03-30T00:04:17.178Z,17
2024-03-30T00:06:17.260Z,15
2024-03-30T00:08:17.353Z,15
2024-03-30T00:10:17.439Z,15
2024-03-30T00:12:17.542Z,14
2024-03-30T00:14:17.634Z,14
2024-03-30T00:16:17.723Z,16
2024-03-30T00:18:17.820Z,15
2024-03-30T00:20:17.934Z,16
2024-03-30T00:22:18.017Z,11
2024-03-30T00:24:18.122Z,12
2024-03-30T00:26:18.224Z,18
2024-03-30T00:28:18.291Z,14
2024-03-30T00:30:18.396Z,13
2024-03-30T00:32:18.535Z,13
2024-03-30T00:34:18.606Z,13
2024-03-30T00:36:18.674Z,13
2024-03-30T00:38:18.779Z,13
2024-03-30T00:40:18.875Z,11
2024-03-30T00:42:18.972Z,11
2024-03-30T00:44:19.069Z,16
2024-03-30T00:46:19.156Z,14
2024-03-30T00:48:19.248Z,12
2024-03-30T00:50:19.345Z,13
2024-03-30T00:52:19.439Z,14
2024-03-30T00:54:19.587Z,15
2024-03-30T00:56:19.612Z,15
2024-03-30T00:58:19.707Z,11
2024-03-30T01:00:19.805Z,13
2024-03-30T01:02:19.897Z,13
2024-03-30T01:04:19.998Z,13
2024-03-30T01:06:21.947Z,12
2024-03-30T01:08:20.193Z,10
2024-03-30T01:10:20.309Z,10
2024-03-30T01:12:20.369Z,10
2024-03-30T01:14:20.466Z,8
2024-03-30T01:16:20.565Z,11
2024-03-30T01:18:20.649Z,11
2024-03-30T01:20:20.728Z,9
2024-03-30T01:22:20.824Z,11
2024-03-30T01:24:20.934Z,9
2024-03-30T01:26:21.014Z,9
2024-03-30T01:28:21.094Z,11
2024-03-30T01:30:21.169Z,11
2024-03-30T01:32:21.252Z,9
2024-03-30T01:34:21.335Z,11
2024-03-30T01:36:21.425Z,9
2024-03-30T01:38:21.505Z,10
2024-03-30T01:40:21.612Z,10
2024-03-30T01:42:21.696Z,10
2024-03-30T01:44:21.783Z,8
2024-03-30T01:46:51.928Z,7
2024-03-30T01:48:52.025Z,9
2024-03-30T01:50:52.198Z,12
2024-03-30T01:52:54.549Z,9
2024-03-30T01:54:52.403Z,8
2024-03-30T01:56:52.513Z,9
2024-03-30T01:58:52.643Z,8
2024-03-30T02:00:52.727Z,8
2024-03-30T02:02:52.846Z,10
2024-03-30T02:04:52.985Z,9
2024-03-30T02:06:53.075Z,9
2024-03-30T02:08:53.240Z,8
2024-03-30T02:10:53.331Z,8
2024-03-30T02:12:53.429Z,7
2024-03-30T02:14:53.545Z,7
2024-03-30T02:16:53.652Z,8
2024-03-30T02:18:53.768Z,8
2024-03-30T02:20:53.961Z,7
2024-03-30T02:22:54.005Z,8
2024-03-30T02:24:54.104Z,6
2024-03-30T02:26:54.225Z,6
2024-03-30T02:28:54.316Z,7
2024-03-30T02:30:54.421Z,8
2024-03-30T02:32:54.564Z,7
2024-03-30T02:34:54.668Z,7
2024-03-30T02:36:54.760Z,8
2024-03-30T02:38:54.868Z,8
2024-03-30T02:40:54.948Z,6
2024-03-30T02:42:55.090Z,5
2024-03-30T02:44:55.195Z,8
2024-03-30T02:46:55.297Z,9
2024-03-30T02:48:55.402Z,7
2024-03-30T02:50:55.541Z,6
2024-03-30T02:52:55.639Z,7
2024-03-30T02:54:55.733Z,7
2024-03-30T02:56:55.881Z,5
2024-03-30T02:58:55.961Z,5
2024-03-30T03:00:56.059Z,8
2024-03-30T03:02:56.228Z,7
2024-03-30T03:04:56.281Z,5
2024-03-30T03:06:56.406Z,6
2024-03-30T03:08:56.513Z,5
2024-03-30T03:10:56.591Z,6
2024-03-30T03:12:56.670Z,5
2024-03-30T03:14:56.804Z,6
2024-03-30T03:16:56.903Z,7
2024-03-30T03:18:57.002Z,8
2024-03-30T03:20:57.144Z,10
2024-03-30T03:22:57.244Z,9
2024-03-30T03:24:57.336Z,10
2024-03-30T03:26:57.467Z,8
2024-03-30T03:28:57.560Z,8
2024-03-30T03:30:57.662Z,7
2024-03-30T03:32:57.798Z,7
2024-03-30T03:34:57.871Z,6
2024-03-30T03:38:58.095Z,6
2024-03-30T03:40:58.178Z,5
2024-03-30T03:42:58.260Z,5
2024-03-30T03:44:58.378Z,6
2024-03-30T03:46:58.437Z,3
2024-03-30T03:48:58.540Z,5
2024-03-30T03:50:58.647Z,4
2024-03-30T03:52:58.749Z,3
2024-03-30T03:54:58.865Z,5
2024-03-30T03:56:58.944Z,4
2024-03-30T03:58:59.064Z,5
2024-03-30T04:00:59.166Z,5
2024-03-30T04:02:59.273Z,5
2024-03-30T04:04:59.377Z,6
2024-03-30T04:06:59.470Z,5
2024-03-30T04:08:59.571Z,6
2024-03-30T04:10:59.647Z,5
2024-03-30T04:12:59.740Z,8
2024-03-30T04:14:59.854Z,7
2024-03-30T04:16:59.933Z,10
2024-03-30T04:19:00.036Z,10
2024-03-30T04:21:00.135Z,9
2024-03-30T04:23:00.225Z,11
2024-03-30T04:25:00.331Z,8
2024-03-30T04:27:00.430Z,7
2024-03-30T04:29:00.578Z,8
2024-03-30T04:31:00.664Z,6
2024-03-30T04:33:02.697Z,5
2024-03-30T04:35:00.826Z,5
2024-03-30T04:37:00.910Z,4
2024-03-30T04:39:01.051Z,4
2024-03-30T04:41:01.116Z,6
2024-03-30T04:43:01.214Z,3
2024-03-30T04:45:01.340Z,6
2024-03-30T04:47:01.408Z,6
2024-03-30T04:49:01.494Z,4
2024-03-30T04:53:01.676Z,5
2024-03-30T04:55:01.800Z,6
2024-03-30T04:57:01.867Z,4
2024-03-30T04:59:01.992Z,6
2024-03-30T05:01:02.124Z,4
2024-03-30T05:03:02.149Z,5
2024-03-30T05:05:02.258Z,6
2024-03-30T05:07:02.340Z,4
2024-03-30T05:09:02.443Z,6
2024-03-30T05:11:02.546Z,7
2024-03-30T05:13:02.630Z,5
2024-03-30T05:15:02.714Z,6
2024-03-30T05:17:02.875Z,7
2024-03-30T05:19:02.910Z,7
2024-03-30T05:21:03.005Z,11
2024-03-30T05:23:03.116Z,9
2024-03-30T05:25:03.271Z,8
2024-03-30T05:27:03.311Z,8
2024-03-30T05:29:03.513Z,8
2024-03-30T05:31:03.467Z,7
2024-03-30T05:33:03.564Z,8
2024-03-30T05:35:03.661Z,9
2024-03-30T05:37:03.749Z,9
2024-03-30T05:39:03.828Z,9
2024-03-30T05:41:03.928Z,7
2024-03-30T05:43:03.993Z,9
2024-03-30T05:45:04.107Z,10
2024-03-30T05:47:04.195Z,11
2024-03-30T05:49:04.289Z,9
2024-03-30T05:51:04.384Z,11
2024-03-30T05:53:04.468Z,9
2024-03-30T05:55:04.568Z,11
2024-03-30T05:57:04.675Z,9
2024-03-30T06:01:04.785Z,10
2024-03-30T06:03:04.878Z,10
2024-03-30T06:05:04.999Z,10
2024-03-30T06:07:05.052Z,13
2024-03-30T06:11:05.247Z,13
2024-03-30T06:13:05.331Z,13
2024-03-30T06:15:05.442Z,14
2024-03-30T06:17:05.484Z,14
2024-03-30T06:19:05.588Z,13
2024-03-30T06:21:05.699Z,11
2024-03-30T06:23:05.741Z,11
2024-03-30T06:25:05.847Z,9
2024-03-30T06:27:35.975Z,10
2024-03-30T06:29:36.101Z,13
2024-03-30T06:31:36.222Z,9
2024-03-30T06:33:36.342Z,10
2024-03-30T06:35:36.449Z,6
2024-03-30T06:37:36.751Z,5
2024-03-30T06:39:36.678Z,8
2024-03-30T06:41:36.788Z,7
2024-03-30T06:43:36.967Z,6
2024-03-30T06:45:37.103Z,5
2024-03-30T06:47:37.169Z,6
2024-03-30T06:49:37.247Z,5
2024-03-30T06:51:37.363Z,6
2024-03-30T06:53:37.464Z,4
2024-03-30T06:55:37.558Z,6
2024-03-30T06:57:37.700Z,5
2024-03-30T06:59:37.785Z,5
2024-03-30T07:01:37.857Z,5
2024-03-30T07:03:37.946Z,6
2024-03-30T07:05:38.109Z,5
2024-03-30T07:07:38.192Z,8
2024-03-30T07:09:38.263Z,7
2024-03-30T07:11:38.379Z,8
2024-03-30T07:13:38.503Z,8
2024-03-30T07:15:38.601Z,9
2024-03-30T07:17:38.702Z,8
2024-03-30T07:19:38.799Z,6
2024-03-30T07:21:38.951Z,9
2024-03-30T07:23:39.016Z,9
2024-03-30T07:25:39.115Z,7
2024-03-30T07:27:39.269Z,8
2024-03-30T07:29:39.313Z,5
2024-03-30T07:31:39.422Z,6
2024-03-30T07:33:39.542Z,6
2024-03-30T07:35:39.651Z,7
2024-03-30T07:37:39.750Z,5
2024-03-30T07:39:39.872Z,6
2024-03-30T07:41:39.977Z,7
2024-03-30T07:43:40.097Z,4
2024-03-30T07:45:40.157Z,6
2024-03-30T07:47:40.281Z,6
2024-03-30T07:49:40.339Z,5
2024-03-30T07:51:40.432Z,4
2024-03-30T07:53:40.549Z,6
2024-03-30T07:55:40.626Z,5
2024-03-30T07:59:40.836Z,5
2024-03-30T08:01:40.934Z,3
2024-03-30T08:03:41.048Z,5
2024-03-30T08:05:41.129Z,3
2024-03-30T08:07:41.198Z,5
2024-03-30T08:09:41.294Z,5
2024-03-30T08:11:41.401Z,6
2024-03-30T08:13:41.506Z,5
2024-03-30T08:15:41.606Z,4
2024-03-30T08:17:41.714Z,5
2024-03-30T08:19:41.802Z,5
2024-03-30T08:21:41.909Z,4
2024-03-30T08:23:42.007Z,5
2024-03-30T08:25:42.106Z,4
2024-03-30T08:27:42.186Z,4
2024-03-30T08:29:42.281Z,4
2024-03-30T08:31:42.373Z,4
2024-03-30T08:33:42.468Z,6
2024-03-30T08:35:42.570Z,3
2024-03-30T08:37:42.662Z,4
2024-03-30T08:39:42.734Z,4
2024-03-30T08:41:42.831Z,4
2024-03-30T08:43:42.924Z,3
2024-03-30T08:45:43.014Z,3
2024-03-30T08:47:43.111Z,5
2024-03-30T08:49:43.206Z,5
2024-03-30T08:51:43.299Z,4
2024-03-30T08:53:43.381Z,5
2024-03-30T08:55:43.477Z,6
2024-03-30T08:57:43.561Z,5
2024-03-30T08:59:43.658Z,6
2024-03-30T09:01:43.740Z,7
2024-03-30T09:03:43.905Z,6
2024-03-30T09:05:43.961Z,7
2024-03-30T09:07:44.020Z,5
2024-03-30T09:10:14.149Z,4
2024-03-30T09:12:14.349Z,6
2024-03-30T09:14:14.388Z,3
2024-03-30T09:16:14.486Z,5
2024-03-30T09:20:14.732Z,4
2024-03-30T09:22:14.837Z,5
2024-03-30T09:24:14.953Z,5
2024-03-30T09:26:15.062Z,5
2024-03-30T09:28:15.170Z,5
2024-03-30T09:30:15.310Z,4
2024-03-30T09:32:15.419Z,4
2024-03-30T09:34:25.099Z,4
2024-03-30T09:36:15.611Z,3
2024-03-30T09:38:15.699Z,2
2024-03-30T09:40:15.799Z,2
2024-03-30T09:42:15.927Z,3
2024-03-30T09:44:16.023Z,5
2024-03-30T09:46:16.137Z,5
2024-03-30T09:50:16.320Z,5
2024-03-30T09:52:16.423Z,4
2024-03-30T09:54:16.514Z,3
2024-03-30T09:56:16.629Z,2
2024-03-30T09:58:16.715Z,3
2024-03-30T10:00:16.788Z,4
2024-03-30T10:02:16.919Z,5
2024-03-30T10:04:17.019Z,3
2024-03-30T10:06:17.128Z,4
2024-03-30T10:08:17.219Z,4
2024-03-30T10:10:17.328Z,3
2024-03-30T10:12:17.417Z,5
2024-03-30T10:14:17.515Z,4
2024-03-30T10:16:17.629Z,3
2024-03-30T10:18:17.714Z,2
2024-03-30T10:20:17.815Z,5
2024-03-30T10:22:17.922Z,5
2024-03-30T10:24:18.013Z,3
2024-03-30T10:28:18.216Z,4
2024-03-30T10:30:18.825Z,3
2024-03-30T10:32:18.412Z,8
2024-03-30T10:34:18.480Z,3
2024-03-30T10:36:18.625Z,3
2024-03-30T10:38:18.678Z,4
2024-03-30T10:40:18.779Z,3
2024-03-30T10:42:18.875Z,4
2024-03-30T10:44:18.968Z,3
2024-03-30T10:46:19.024Z,4
2024-03-30T10:48:19.126Z,3
2024-03-30T10:50:20.919Z,3
2024-03-30T10:52:19.301Z,4
2024-03-30T10:54:49.445Z,3
2024-03-30T10:56:49.557Z,5
2024-03-30T10:58:49.725Z,4
2024-03-30T11:00:49.806Z,4
2024-03-30T11:02:49.905Z,4
2024-03-30T11:04:50.031Z,3
2024-03-30T11:06:50.163Z,4
2024-03-30T11:08:50.265Z,4
2024-03-30T11:10:50.405Z,2
2024-03-30T11:12:50.486Z,2
2024-03-30T11:14:50.567Z,2
2024-03-30T11:16:50.681Z,2
2024-03-30T11:18:50.782Z,4
2024-03-30T11:20:50.885Z,2
2024-03-30T11:22:50.993Z,2
2024-03-30T11:24:51.104Z,3
2024-03-30T11:28:51.292Z,2
2024-03-30T11:30:54.254Z,2
2024-03-30T11:32:51.464Z,3
2024-03-30T11:34:51.580Z,3
2024-03-30T11:36:51.669Z,3
2024-03-30T11:38:51.780Z,3
2024-03-30T11:40:51.883Z,4
2024-03-30T11:42:51.961Z,3
2024-03-30T11:44:52.065Z,2
2024-03-30T11:46:52.159Z,2
2024-03-30T11:48:52.267Z,1
2024-03-30T11:50:52.418Z,2
2024-03-30T11:52:52.461Z,2
2024-03-30T11:54:52.566Z,3
2024-03-30T11:56:52.662Z,4
2024-03-30T11:58:52.759Z,3
2024-03-30T12:00:52.841Z,3
2024-03-30T12:02:52.934Z,3
2024-03-30T12:04:53.031Z,4
2024-03-30T12:06:53.113Z,3
2024-03-30T12:08:53.220Z,4
2024-03-30T12:10:53.311Z,3
2024-03-30T12:12:53.441Z,2
2024-03-30T12:14:53.466Z,3
2024-03-30T12:16:53.559Z,2
2024-03-30T12:18:53.651Z,2
2024-03-30T12:20:53.705Z,3
2024-03-30T12:23:23.843Z,1
2024-03-30T12:25:24.014Z,2
2024-03-30T12:27:24.119Z,3
2024-03-30T12:29:32.195Z,2
2024-03-30T12:31:24.296Z,3
2024-03-30T12:33:24.405Z,2
2024-03-30T12:35:24.479Z,3
2024-03-30T12:37:24.619Z,2
2024-03-30T12:39:24.709Z,3
2024-03-30T12:41:24.831Z,2
2024-03-30T12:43:24.933Z,3
2024-03-30T12:45:25.035Z,2
2024-03-30T12:47:25.208Z,2
2024-03-30T12:49:25.278Z,3
2024-03-30T12:51:25.347Z,2
2024-03-30T12:55:25.494Z,2
2024-03-30T12:57:25.600Z,3
2024-03-30T12:59:25.721Z,2
2024-03-30T13:01:25.808Z,2
2024-03-30T13:03:25.913Z,2
2024-03-30T13:05:26.014Z,1
2024-03-30T13:07:26.074Z,2
2024-03-30T13:09:26.185Z,2
2024-03-30T13:11:26.267Z,2
2024-03-30T13:13:26.392Z,2
2024-03-30T13:15:26.448Z,2
2024-03-30T13:17:26.553Z,3
2024-03-30T13:19:26.636Z,2
2024-03-30T13:21:26.739Z,1
2024-03-30T13:23:26.834Z,2
2024-03-30T13:25:26.916Z,4
2024-03-30T13:27:27.008Z,4
2024-03-30T13:29:27.089Z,3
2024-03-30T13:31:27.154Z,2
2024-03-30T13:33:27.259Z,3
2024-03-30T13:35:27.304Z,2
2024-03-30T13:37:27.404Z,3
2024-03-30T13:39:27.501Z,2
2024-03-30T13:41:27.580Z,2
2024-03-30T13:43:27.671Z,2
2024-03-30T13:47:57.952Z,3
2024-03-30T13:49:58.060Z,2
2024-03-30T13:51:58.167Z,2
2024-03-30T13:53:58.261Z,1
2024-03-30T13:57:58.474Z,2
2024-03-30T13:59:58.583Z,4
2024-03-30T14:01:58.695Z,3
2024-03-30T14:03:58.807Z,3
2024-03-30T14:05:58.935Z,2
2024-03-30T14:07:59.031Z,2
2024-03-30T14:09:59.125Z,2
2024-03-30T14:11:59.239Z,2
2024-03-30T14:13:59.349Z,1
2024-03-30T14:15:59.455Z,2
2024-03-30T14:17:59.608Z,3
2024-03-30T14:19:59.663Z,1
2024-03-30T14:21:59.762Z,3
2024-03-30T14:23:59.879Z,3
2024-03-30T14:25:59.971Z,2
2024-03-30T14:28:00.074Z,3
2024-03-30T14:30:00.366Z,2
2024-03-30T14:32:00.266Z,2
2024-03-30T14:34:00.352Z,4
2024-03-30T14:36:00.506Z,3
2024-03-30T14:38:00.595Z,3
2024-03-30T14:40:00.711Z,2
2024-03-30T14:42:00.756Z,3
2024-03-30T14:44:00.864Z,5
2024-03-30T14:46:00.933Z,5
2024-03-30T14:48:01.097Z,4
2024-03-30T14:50:01.111Z,4
2024-03-30T14:52:01.205Z,3
2024-03-30T14:58:01.442Z,3
2024-03-30T15:00:01.538Z,3
2024-03-30T15:02:01.673Z,4
2024-03-30T15:04:01.683Z,5
2024-03-30T15:06:01.747Z,7
2024-03-30T15:08:01.825Z,6
2024-03-30T15:10:01.974Z,4
2024-03-30T15:12:32.068Z,3
2024-03-30T15:14:32.174Z,3
2024-03-30T15:16:32.309Z,2
2024-03-30T15:20:32.537Z,4
2024-03-30T15:22:32.690Z,2
2024-03-30T15:24:32.763Z,2
2024-03-30T15:26:32.862Z,3
2024-03-30T15:28:32.987Z,2
2024-03-30T15:30:33.094Z,4
2024-03-30T15:32:33.235Z,3
2024-03-30T15:34:33.318Z,3
2024-03-30T15:36:33.433Z,3
2024-03-30T15:38:33.543Z,3
2024-03-30T15:40:33.652Z,3
2024-03-30T15:42:33.768Z,3
2024-03-30T15:44:33.923Z,4
2024-03-30T15:46:33.982Z,4
2024-03-30T15:50:34.199Z,4
2024-03-30T15:52:34.256Z,2
2024-03-30T15:54:34.357Z,3
2024-03-30T15:56:34.463Z,4
2024-03-30T15:58:34.583Z,4
2024-03-30T16:00:34.709Z,5
2024-03-30T16:02:34.793Z,4
2024-03-30T16:04:34.888Z,3
2024-03-30T16:06:35.047Z,4
2024-03-30T16:08:35.104Z,4
2024-03-30T16:10:35.201Z,3
2024-03-30T16:12:35.294Z,4
2024-03-30T16:14:35.392Z,4
2024-03-30T16:16:35.473Z,4
2024-03-30T16:18:35.575Z,4
2024-03-30T16:20:35.689Z,4
2024-03-30T16:22:35.777Z,3
2024-03-30T16:24:36.061Z,4
2024-03-30T16:26:35.978Z,4
2024-03-30T16:28:36.111Z,4
2024-03-30T16:30:36.187Z,4
2024-03-30T16:32:36.263Z,4
2024-03-30T16:36:36.430Z,3
2024-03-30T16:38:36.548Z,4
2024-03-30T16:40:36.634Z,3
2024-03-30T16:42:36.708Z,5
2024-03-30T16:44:36.805Z,7
2024-03-30T16:46:36.890Z,6
2024-03-30T16:51:07.184Z,5
2024-03-30T16:53:07.254Z,6
2024-03-30T16:55:07.375Z,7
2024-03-30T16:57:07.501Z,5
2024-03-30T16:59:07.603Z,4
2024-03-30T17:43:20.214Z,6
2024-03-30T17:45:19.827Z,5
2024-03-30T17:47:19.878Z,5
2024-03-30T17:49:19.969Z,5
2024-03-30T17:51:20.083Z,7
2024-03-30T17:53:20.178Z,4
2024-03-30T17:55:21.558Z,4
2024-03-30T17:57:20.398Z,4
2024-03-30T17:59:20.519Z,5
2024-03-30T18:01:20.634Z,3
2024-03-30T18:03:20.750Z,4
2024-03-30T18:05:20.844Z,5
2024-03-30T18:07:20.996Z,6
2024-03-30T18:09:21.093Z,6
2024-03-30T18:11:21.164Z,8
2024-03-30T18:13:21.281Z,6
2024-03-30T18:15:21.485Z,5
2024-03-30T18:17:21.505Z,6
2024-03-30T18:19:21.826Z,6
2024-03-30T18:21:21.811Z,5
2024-03-30T18:23:21.949Z,7
2024-03-30T18:25:21.999Z,5
2024-03-30T18:27:22.173Z,5
2024-03-30T18:29:22.233Z,6
2024-03-30T18:31:22.340Z,5
2024-03-30T18:33:22.454Z,7
2024-03-30T18:35:22.559Z,6
2024-03-30T18:37:22.664Z,7
2024-03-30T18:39:22.748Z,9
2024-03-30T18:41:22.881Z,7
2024-03-30T18:45:23.064Z,8
2024-03-30T18:47:23.154Z,9
2024-03-30T18:49:23.225Z,6
2024-03-30T18:51:23.375Z,6
2024-03-30T18:53:23.436Z,6
2024-03-30T18:55:23.512Z,5
2024-03-30T18:57:23.599Z,5
2024-03-30T18:59:23.716Z,6
2024-03-30T19:01:23.759Z,6
2024-03-30T19:03:23.893Z,5
2024-03-30T19:05:23.964Z,5
2024-03-30T19:07:24.136Z,4
2024-03-30T19:09:24.191Z,5
2024-03-30T19:11:24.228Z,5
2024-03-30T19:13:24.346Z,5
2024-03-30T19:15:24.422Z,5
2024-03-30T19:17:24.496Z,5
2024-03-30T19:19:24.577Z,5
2024-03-30T19:21:24.690Z,8
2024-03-30T19:23:24.761Z,5
2024-03-30T19:25:24.844Z,4
2024-03-30T19:29:55.133Z,5
2024-03-30T19:31:55.249Z,4
2024-03-30T19:33:55.378Z,5
2024-03-30T19:35:55.474Z,5
2024-03-30T19:37:55.593Z,4
2024-03-30T19:39:55.702Z,6
2024-03-30T19:41:55.827Z,5
2024-03-30T19:43:55.993Z,6
2024-03-30T19:45:56.030Z,5
2024-03-30T19:47:56.142Z,6
2024-03-30T19:49:56.260Z,7
2024-03-30T19:51:56.467Z,5
2024-03-30T19:53:56.495Z,5
2024-03-30T19:55:56.622Z,7
2024-03-30T19:59:56.834Z,7
2024-03-30T20:01:56.941Z,7
2024-03-30T20:03:57.037Z,6
2024-03-30T20:05:57.132Z,6
2024-03-30T20:07:57.246Z,7
2024-03-30T20:09:57.332Z,7
2024-03-30T20:11:57.439Z,7
2024-03-30T20:13:57.577Z,5
2024-03-30T20:15:57.688Z,7
2024-03-30T20:17:57.768Z,6
2024-03-30T20:19:57.892Z,5
2024-03-30T20:21:57.985Z,4
2024-03-30T20:25:58.207Z,6
2024-03-30T20:27:58.292Z,6
2024-03-30T20:29:58.388Z,8
2024-03-30T20:31:58.511Z,7
2024-03-30T20:33:58.661Z,5
2024-03-30T20:35:58.726Z,7
2024-03-30T20:37:58.793Z,8
2024-03-30T20:39:58.896Z,10
2024-03-30T20:41:58.985Z,6
2024-03-30T20:44:01.251Z,9
2024-03-30T20:45:59.201Z,7
2024-03-30T20:47:59.304Z,9
2024-03-30T20:49:59.536Z,8
2024-03-30T20:53:59.600Z,8
2024-03-30T20:55:59.709Z,7
2024-03-30T20:57:59.832Z,7
2024-03-30T20:59:59.904Z,9
2024-03-30T21:01:59.990Z,7
2024-03-30T21:06:00.192Z,8
2024-03-30T21:08:00.272Z,8
2024-03-30T21:10:00.575Z,7
2024-03-30T21:12:00.461Z,7
2024-03-30T21:14:00.533Z,6
2024-03-30T21:16:00.641Z,5
2024-03-30T21:18:00.703Z,6
2024-03-30T21:20:02.790Z,7
2024-03-30T21:24:00.991Z,6
2024-03-30T21:26:01.060Z,6
2024-03-30T21:28:01.176Z,6
2024-03-30T21:32:01.348Z,6
2024-03-30T21:34:01.440Z,7
2024-03-30T21:36:01.556Z,6
2024-03-30T21:38:01.641Z,5
2024-03-30T21:40:01.795Z,6
2024-03-30T21:42:01.813Z,5
2024-03-30T21:44:01.892Z,7
2024-03-30T21:46:01.968Z,7
2024-03-30T21:48:02.062Z,7
2024-03-30T21:50:02.157Z,7
2024-03-30T21:52:02.234Z,5
2024-03-30T21:56:32.516Z,8
2024-03-30T21:58:32.638Z,5
2024-03-30T22:00:32.758Z,7
2024-03-30T22:02:32.869Z,6
2024-03-30T22:04:32.982Z,6
2024-03-30T22:06:33.117Z,5
2024-03-30T22:08:33.210Z,6
2024-03-30T22:10:33.310Z,6
2024-03-30T22:12:33.429Z,7
2024-03-30T22:14:33.530Z,6
2024-03-30T22:16:33.671Z,6
2024-03-30T22:18:33.778Z,4
2024-03-30T22:20:33.893Z,6
2024-03-30T22:22:33.980Z,8
2024-03-30T22:24:34.140Z,10
2024-03-30T22:26:34.196Z,8
2024-03-30T22:28:34.312Z,7
2024-03-30T22:30:34.426Z,11
2024-03-30T22:32:34.533Z,6
2024-03-30T22:34:34.801Z,4
2024-03-30T22:36:34.813Z,6
2024-03-30T22:38:34.883Z,4
2024-03-30T22:40:34.971Z,7
2024-03-30T22:42:35.118Z,8
2024-03-30T22:44:35.204Z,7
2024-03-30T22:46:35.342Z,4
2024-03-30T22:48:35.416Z,5
2024-03-30T22:50:35.513Z,7
2024-03-30T22:52:35.615Z,7
2024-03-30T22:54:35.777Z,6
2024-03-30T22:56:35.845Z,6
2024-03-30T22:58:35.966Z,7
2024-03-30T23:00:36.080Z,5
2024-03-30T23:02:36.184Z,3
2024-03-30T23:04:36.263Z,7
2024-03-30T23:06:36.378Z,6
2024-03-30T23:08:36.463Z,7
2024-03-30T23:10:36.596Z,6
2024-03-30T23:12:36.798Z,8
2024-03-30T23:14:36.890Z,8
2024-03-30T23:16:36.847Z,7
2024-03-30T23:18:37.000Z,10
2024-03-30T23:20:37.061Z,10
2024-03-30T23:22:37.150Z,10
2024-03-30T23:24:37.284Z,9
2024-03-30T23:26:37.357Z,8
2024-03-30T23:28:37.470Z,6
2024-03-30T23:30:37.611Z,7
2024-03-30T23:32:37.665Z,8
2024-03-30T23:34:37.773Z,8
2024-03-30T23:36:37.876Z,8
2024-03-30T23:38:37.950Z,6
2024-03-30T23:40:38.072Z,5
2024-03-30T23:44:38.256Z,5
2024-03-30T23:46:38.370Z,7
2024-03-30T23:48:38.463Z,6
2024-03-30T23:50:38.580Z,8
2024-03-30T23:52:38.666Z,7
2024-03-30T23:54:38.751Z,6
2024-03-30T23:56:38.815Z,7
2024-03-30T23:58:38.920Z,6
